Time;durP1;ratioP1;P1;durP2;ratioP2;P2;SDS_P1;SDS_P2;PMS_P1;PMS_P2;Temp;Humidity;BMP_temperature;BMP_pressure;BME280_temperature;BME280_humidity;BME280_pressure;Samples;Min_cycle;Max_cycle;Signal;HPM_P1;HPM_P2
2023/08/05 00:00:20;;;;;;;2.97;1.80;;;;;;;;;;8217345;28;20069;-69
2023/08/05 00:04:20;;;;;;;2.88;1.92;;;;;;;;;;8239240;28;20034;-69
2023/08/05 00:08:21;;;;;;;3.47;2.13;;;;;;;;;;8239924;28;20031;-69
2023/08/05 00:12:21;;;;;;;3.05;1.92;;;;;;;;;;8237236;28;20782;-69
2023/08/05 00:16:21;;;;;;;3.08;1.90;;;;;;;;;;8238405;28;20054;-69
2023/08/05 00:20:21;;;;;;;2.65;1.90;;;;;;;;;;8238901;28;20021;-69
2023/08/05 00:24:21;;;;;;;3.88;2.15;;;;;;;;;;8237168;28;20030;-69
2023/08/05 00:28:21;;;;;;;3.35;2.10;;;;;;;;;;8237395;28;20084;-69
2023/08/05 00:32:22;;;;;;;3.50;1.90;;;;;;;;;;8236962;28;20042;-69
2023/08/05 00:36:22;;;;;;;3.20;1.85;;;;;;;;;;8237184;28;20040;-69
2023/08/05 00:40:22;;;;;;;3.75;2.00;;;;;;;;;;8237075;28;20026;-69
2023/08/05 00:44:23;;;;;;;3.63;2.08;;;;;;;;;;8239990;28;20069;-69
2023/08/05 00:48:25;;;;;;;5.35;2.05;;;;;;;;;;8236836;28;20059;-69
2023/08/05 00:52:25;;;;;;;4.28;2.08;;;;;;;;;;8236683;28;20018;-69
2023/08/05 00:56:25;;;;;;;2.05;1.85;;;;;;;;;;8238400;28;20037;-69
2023/08/05 01:00:26;;;;;;;4.10;1.95;;;;;;;;;;8238655;28;20045;-69
2023/08/05 01:04:26;;;;;;;4.07;1.80;;;;;;;;;;8237783;28;20030;-69
2023/08/05 01:08:26;;;;;;;2.95;1.65;;;;;;;;;;8236306;28;20018;-69
2023/08/05 01:12:27;;;;;;;1.95;1.58;;;;;;;;;;8239218;28;20100;-69
2023/08/05 01:16:27;;;;;;;1.73;1.60;;;;;;;;;;8236833;28;20145;-69
2023/08/05 01:20:30;;;;;;;4.13;2.17;;;;;;;;;;8239165;28;20026;-69
2023/08/05 01:24:49;;;;;;;2.10;1.73;;;;;;;;;;8238440;28;20045;-69
2023/08/05 01:28:49;;;;;;;4.60;2.00;;;;;;;;;;8244574;28;20037;-69
2023/08/05 01:32:49;;;;;;;2.03;1.70;;;;;;;;;;8245194;28;20030;-69
2023/08/05 01:36:50;;;;;;;3.22;2.00;;;;;;;;;;8242982;28;20404;-69
2023/08/05 01:40:50;;;;;;;2.05;1.58;;;;;;;;;;8243843;28;20037;-69
2023/08/05 01:44:50;;;;;;;4.07;2.13;;;;;;;;;;8244734;28;20825;-69
2023/08/05 01:48:50;;;;;;;2.80;2.10;;;;;;;;;;8242336;28;20030;-69
2023/08/05 01:52:51;;;;;;;3.83;1.95;;;;;;;;;;8239385;28;20497;-69
2023/08/05 01:56:52;;;;;;;5.55;2.20;;;;;;;;;;8242974;28;20033;-69
2023/08/05 02:00:52;;;;;;;2.90;1.80;;;;;;;;;;8241412;28;20856;-69
2023/08/05 02:04:52;;;;;;;5.78;2.00;;;;;;;;;;8241906;28;20643;-69
2023/08/05 02:08:53;;;;;;;2.75;2.08;;;;;;;;;;8241629;28;20022;-69
2023/08/05 02:12:53;;;;;;;3.30;2.10;;;;;;;;;;8241940;28;20398;-69
2023/08/05 02:16:53;;;;;;;2.88;2.10;;;;;;;;;;8241224;28;20164;-69
2023/08/05 02:20:53;;;;;;;4.03;2.20;;;;;;;;;;8241354;28;20030;-69
2023/08/05 02:24:53;;;;;;;2.47;1.92;;;;;;;;;;8241855;28;20037;-69
2023/08/05 02:28:53;;;;;;;5.05;2.30;;;;;;;;;;8241589;28;20042;-69
2023/08/05 02:32:54;;;;;;;5.45;2.00;;;;;;;;;;8241159;28;20540;-69
2023/08/05 02:36:54;;;;;;;5.35;2.30;;;;;;;;;;8240775;28;20053;-69
2023/08/05 02:40:55;;;;;;;4.72;2.65;;;;;;;;;;8242419;28;20112;-69
2023/08/05 02:44:55;;;;;;;6.05;2.70;;;;;;;;;;8241353;28;20049;-69
2023/08/05 02:48:55;;;;;;;6.57;2.92;;;;;;;;;;8240614;28;20450;-69
2023/08/05 02:52:55;;;;;;;5.45;2.78;;;;;;;;;;8240958;28;20040;-69
2023/08/05 02:56:55;;;;;;;5.28;2.80;;;;;;;;;;8241739;28;20042;-69
2023/08/05 03:01:03;;;;;;;4.30;3.30;;;;;;;;;;8232654;28;20514;-70
2023/08/05 03:05:04;;;;;;;4.68;2.50;;;;;;;;;;8240762;28;20147;-69
2023/08/05 03:09:04;;;;;;;6.07;3.17;;;;;;;;;;8239223;28;20023;-69
2023/08/05 03:13:04;;;;;;;9.90;3.17;;;;;;;;;;8239697;28;20022;-69
2023/08/05 03:17:04;;;;;;;8.10;3.05;;;;;;;;;;8237744;28;20033;-69
2023/08/05 03:21:04;;;;;;;5.57;3.40;;;;;;;;;;8242084;28;20033;-69
2023/08/05 03:25:05;;;;;;;6.68;3.15;;;;;;;;;;8238908;28;20400;-69
2023/08/05 03:29:05;;;;;;;5.22;3.40;;;;;;;;;;8240989;28;20030;-69
2023/08/05 03:33:05;;;;;;;4.10;2.90;;;;;;;;;;8238903;28;20061;-69
2023/08/05 03:37:05;;;;;;;6.05;3.15;;;;;;;;;;8238777;28;20480;-69
2023/08/05 03:41:06;;;;;;;4.53;3.05;;;;;;;;;;8241901;28;20030;-69
2023/08/05 03:45:06;;;;;;;5.90;3.30;;;;;;;;;;8237767;28;20049;-69
2023/08/05 03:49:06;;;;;;;3.25;2.85;;;;;;;;;;8238649;28;20281;-69
2023/08/05 03:53:07;;;;;;;5.80;3.28;;;;;;;;;;8237242;28;20773;-69
2023/08/05 03:57:09;;;;;;;6.13;3.40;;;;;;;;;;8236525;28;20034;-70
2023/08/05 04:01:12;;;;;;;4.28;3.15;;;;;;;;;;8239116;28;20089;-69
2023/08/05 04:05:12;;;;;;;6.03;3.30;;;;;;;;;;8240575;28;20080;-69
2023/08/05 04:09:12;;;;;;;7.68;3.22;;;;;;;;;;8236763;28;20030;-69
2023/08/05 04:13:16;;;;;;;6.18;3.47;;;;;;;;;;8237882;28;20598;-69
2023/08/05 04:17:16;;;;;;;5.72;3.90;;;;;;;;;;8237199;28;20031;-69
2023/08/05 04:21:17;;;;;;;4.70;3.38;;;;;;;;;;8239229;28;20037;-69
2023/08/05 04:25:17;;;;;;;6.63;3.85;;;;;;;;;;8237532;28;20029;-69
2023/08/05 04:29:18;;;;;;;6.53;3.88;;;;;;;;;;8237213;28;20026;-70
2023/08/05 04:33:18;;;;;;;5.88;4.00;;;;;;;;;;8240010;28;20038;-69
2023/08/05 04:37:19;;;;;;;6.97;3.60;;;;;;;;;;8236976;28;20037;-69
2023/08/05 04:41:20;;;;;;;7.00;3.85;;;;;;;;;;8240211;28;20442;-69
2023/08/05 04:45:20;;;;;;;4.35;3.65;;;;;;;;;;8238784;28;20037;-69
2023/08/05 04:49:20;;;;;;;8.23;4.68;;;;;;;;;;8239410;28;20034;-69
2023/08/05 04:53:21;;;;;;;8.18;4.43;;;;;;;;;;8236844;28;20747;-69
2023/08/05 04:57:21;;;;;;;5.13;3.47;;;;;;;;;;8238115;28;20088;-69
2023/08/05 05:01:22;;;;;;;6.97;3.70;;;;;;;;;;8240737;28;20442;-70
2023/08/05 05:05:22;;;;;;;3.63;3.15;;;;;;;;;;8242768;28;20026;-70
2023/08/05 05:09:22;;;;;;;4.55;3.15;;;;;;;;;;8240286;28;20022;-69
2023/08/05 05:13:22;;;;;;;5.20;3.60;;;;;;;;;;8243167;28;20042;-70
2023/08/05 05:17:22;;;;;;;5.68;3.45;;;;;;;;;;8242224;28;21157;-70
2023/08/05 05:21:23;;;;;;;6.65;3.78;;;;;;;;;;8242923;28;20033;-70
2023/08/05 05:25:23;;;;;;;5.43;3.38;;;;;;;;;;8243091;28;20034;-70
2023/08/05 05:29:23;;;;;;;7.93;3.60;;;;;;;;;;8241762;28;20030;-70
2023/08/05 05:33:23;;;;;;;6.53;3.90;;;;;;;;;;8243105;28;20282;-70
2023/08/05 05:37:23;;;;;;;5.47;3.20;;;;;;;;;;8240713;28;20108;-70
2023/08/05 05:41:24;;;;;;;6.70;3.30;;;;;;;;;;8242920;28;20607;-69
2023/08/05 05:45:24;;;;;;;4.25;3.28;;;;;;;;;;8224890;28;20046;-70
2023/08/05 05:49:24;;;;;;;5.35;3.42;;;;;;;;;;8240092;28;20030;-70
2023/08/05 05:53:24;;;;;;;5.87;3.50;;;;;;;;;;8242695;28;20131;-70
2023/08/05 05:57:24;;;;;;;5.38;3.97;;;;;;;;;;8243404;28;20021;-70
2023/08/05 06:01:25;;;;;;;8.75;3.92;;;;;;;;;;8241587;28;20027;-70
2023/08/05 06:05:25;;;;;;;5.50;3.70;;;;;;;;;;8243096;28;20203;-70
2023/08/05 06:09:26;;;;;;;5.15;3.17;;;;;;;;;;8243219;28;20084;-70
2023/08/05 06:13:26;;;;;;;4.78;3.10;;;;;;;;;;8242991;28;20026;-70
2023/08/05 06:17:26;;;;;;;6.97;3.10;;;;;;;;;;8241596;28;20125;-70
2023/08/05 06:21:27;;;;;;;5.75;3.00;;;;;;;;;;8244730;28;20033;-70
2023/08/05 06:25:27;;;;;;;5.55;2.78;;;;;;;;;;8240715;28;20030;-70
2023/08/05 06:29:27;;;;;;;6.55;3.80;;;;;;;;;;8232846;28;20737;-70
2023/08/05 06:33:28;;;;;;;4.05;2.90;;;;;;;;;;8240865;28;20061;-70
2023/08/05 06:37:28;;;;;;;5.10;3.03;;;;;;;;;;8242669;28;21099;-70
2023/08/05 06:41:28;;;;;;;3.22;2.78;;;;;;;;;;8245816;28;20033;-70
2023/08/05 06:45:29;;;;;;;7.20;3.00;;;;;;;;;;8242585;28;20042;-70
2023/08/05 06:49:29;;;;;;;4.95;2.33;;;;;;;;;;8243963;28;20040;-72
2023/08/05 06:53:29;;;;;;;4.90;2.80;;;;;;;;;;8243335;28;20037;-70
2023/08/05 06:57:32;;;;;;;4.75;2.58;;;;;;;;;;8240139;28;20026;-70
2023/08/05 07:01:33;;;;;;;3.97;2.10;;;;;;;;;;8242036;28;20030;-70
2023/08/05 07:05:33;;;;;;;3.55;2.35;;;;;;;;;;8231791;28;20386;-70
2023/08/05 07:09:33;;;;;;;2.60;2.30;;;;;;;;;;8229802;28;20014;-70
2023/08/05 07:13:33;;;;;;;4.22;2.40;;;;;;;;;;8223356;28;20034;-70
2023/08/05 07:17:34;;;;;;;3.53;2.20;;;;;;;;;;8220776;28;20045;-70
2023/08/05 07:21:34;;;;;;;2.50;2.30;;;;;;;;;;8239973;28;20026;-70
2023/08/05 07:25:34;;;;;;;2.85;2.38;;;;;;;;;;8231187;28;20057;-70
2023/08/05 07:29:34;;;;;;;2.17;1.80;;;;;;;;;;8241158;28;20052;-70
2023/08/05 07:33:34;;;;;;;2.28;1.80;;;;;;;;;;8240535;28;20034;-70
2023/08/05 07:37:35;;;;;;;4.20;1.83;;;;;;;;;;8237861;28;20044;-70
2023/08/05 07:41:36;;;;;;;3.10;1.67;;;;;;;;;;8239280;28;20105;-69
2023/08/05 07:45:37;;;;;;;3.65;1.95;;;;;;;;;;8239256;28;20046;-70
2023/08/05 07:49:37;;;;;;;2.05;1.65;;;;;;;;;;8239275;28;20355;-70
2023/08/05 07:53:38;;;;;;;2.38;1.50;;;;;;;;;;8240043;28;20029;-70
2023/08/05 07:57:40;;;;;;;2.17;1.50;;;;;;;;;;8238598;28;20751;-70
2023/08/05 08:01:42;;;;;;;2.57;1.60;;;;;;;;;;8239048;28;20285;-70
2023/08/05 08:05:43;;;;;;;3.60;2.03;;;;;;;;;;8238691;28;20157;-69
2023/08/05 08:09:43;;;;;;;3.88;1.92;;;;;;;;;;8240969;28;20057;-70
2023/08/05 08:13:43;;;;;;;2.47;1.70;;;;;;;;;;8239013;28;20026;-70
2023/08/05 08:17:43;;;;;;;2.60;1.38;;;;;;;;;;8239851;28;20157;-69
2023/08/05 08:21:44;;;;;;;2.40;1.50;;;;;;;;;;8229342;28;20906;-70
2023/08/05 08:25:44;;;;;;;1.85;1.60;;;;;;;;;;8236145;28;20040;-70
2023/08/05 08:29:44;;;;;;;2.78;1.73;;;;;;;;;;8220637;28;20025;-70
2023/08/05 08:33:45;;;;;;;3.38;2.03;;;;;;;;;;8238677;28;20034;-69
2023/08/05 08:37:45;;;;;;;4.00;1.80;;;;;;;;;;8242716;28;20072;-69
2023/08/05 08:41:48;;;;;;;3.63;1.90;;;;;;;;;;8246890;28;20221;-70
2023/08/05 08:45:50;;;;;;;6.53;1.70;;;;;;;;;;8244740;28;20637;-70
2023/08/05 08:49:52;;;;;;;2.83;1.55;;;;;;;;;;8245101;28;20809;-70
2023/08/05 08:53:52;;;;;;;2.20;1.45;;;;;;;;;;8245743;28;20037;-70
2023/08/05 08:57:52;;;;;;;2.15;1.40;;;;;;;;;;8243361;28;20947;-70
2023/08/05 09:01:54;;;;;;;2.50;1.70;;;;;;;;;;8245834;28;20089;-70
2023/08/05 09:05:55;;;;;;;1.73;1.33;;;;;;;;;;8245041;28;20068;-70
2023/08/05 09:09:57;;;;;;;2.22;1.50;;;;;;;;;;8242970;28;20066;-69
2023/08/05 09:13:57;;;;;;;1.40;1.10;;;;;;;;;;8244528;28;20022;-70
2023/08/05 09:17:58;;;;;;;1.73;1.30;;;;;;;;;;8244276;28;20146;-70
2023/08/05 09:22:02;;;;;;;1.40;1.10;;;;;;;;;;8242810;28;20029;-70
2023/08/05 09:26:04;;;;;;;1.92;1.20;;;;;;;;;;8246172;28;20669;-70
2023/08/05 09:30:14;;;;;;;2.40;1.23;;;;;;;;;;8242184;28;20052;-70
2023/08/05 09:34:15;;;;;;;1.20;1.08;;;;;;;;;;8245882;28;20038;-70
2023/08/05 09:38:15;;;;;;;2.03;1.33;;;;;;;;;;8244503;28;20800;-70
2023/08/05 09:42:24;;;;;;;1.20;1.10;;;;;;;;;;8244901;28;20084;-70
2023/08/05 09:46:36;;;;;;;1.75;1.10;;;;;;;;;;8242931;28;20152;-70
2023/08/05 09:50:37;;;;;;;2.25;1.25;;;;;;;;;;8243978;28;20030;-70
2023/08/05 09:54:37;;;;;;;1.38;1.15;;;;;;;;;;8242631;28;20451;-70
2023/08/05 09:58:37;;;;;;;1.97;1.10;;;;;;;;;;8242368;28;20045;-70
2023/08/05 10:02:42;;;;;;;1.05;1.00;;;;;;;;;;8244240;28;20034;-70
2023/08/05 10:06:43;;;;;;;1.85;1.30;;;;;;;;;;8244419;28;20506;-70
2023/08/05 10:10:44;;;;;;;2.40;1.17;;;;;;;;;;8226223;28;20424;-70
2023/08/05 10:14:44;;;;;;;2.03;1.15;;;;;;;;;;8245452;28;20037;-70
2023/08/05 10:18:45;;;;;;;1.30;1.13;;;;;;;;;;8241830;28;20787;-70
2023/08/05 10:23:05;;;;;;;2.00;1.17;;;;;;;;;;8226426;28;20041;-70
2023/08/05 10:27:11;;;;;;;2.58;1.05;;;;;;;;;;8242196;28;20042;-70
2023/08/05 10:31:24;;;;;;;2.97;1.33;;;;;;;;;;8243273;28;20046;-70
2023/08/05 10:35:28;;;;;;;1.20;1.10;;;;;;;;;;8242031;28;20038;-70
2023/08/05 10:39:55;;;;;;;1.73;0.98;;;;;;;;;;8242165;28;20021;-71
2023/08/05 10:43:55;;;;;;;1.08;0.80;;;;;;;;;;8238474;28;20863;-70
2023/08/05 10:47:55;;;;;;;1.38;0.98;;;;;;;;;;8241559;28;20122;-70
2023/08/05 10:51:55;;;;;;;1.23;0.85;;;;;;;;;;8240276;28;20692;-70
2023/08/05 10:55:56;;;;;;;1.05;0.95;;;;;;;;;;8229023;28;20026;-70
2023/08/05 10:59:57;;;;;;;1.67;0.93;;;;;;;;;;8239639;28;20101;-70
2023/08/05 11:03:58;;;;;;;0.80;0.80;;;;;;;;;;8243826;28;20046;-70
2023/08/05 11:07:58;;;;;;;1.05;0.90;;;;;;;;;;8240306;28;20374;-70
2023/08/05 11:11:58;;;;;;;1.33;0.90;;;;;;;;;;8241892;28;20144;-70
2023/08/05 11:16:01;;;;;;;1.63;0.90;;;;;;;;;;8236222;28;20806;-70
2023/08/05 11:20:02;;;;;;;1.63;1.15;;;;;;;;;;8241388;28;20125;-70
2023/08/05 11:24:02;;;;;;;1.67;0.88;;;;;;;;;;8239981;28;20037;-71
2023/08/05 11:28:05;;;;;;;3.03;0.90;;;;;;;;;;8240504;28;20089;-70
2023/08/05 11:32:05;;;;;;;1.40;0.93;;;;;;;;;;8239675;28;20168;-71
2023/08/05 11:36:05;;;;;;;1.97;1.07;;;;;;;;;;8239705;28;20116;-70
2023/08/05 11:40:06;;;;;;;1.27;1.00;;;;;;;;;;8239965;28;21025;-71
2023/08/05 11:44:06;;;;;;;1.00;0.90;;;;;;;;;;8237897;28;20144;-70
2023/08/05 11:48:20;;;;;;;1.00;0.90;;;;;;;;;;8240290;28;20046;-70
2023/08/05 11:52:20;;;;;;;2.55;0.90;;;;;;;;;;8238563;28;20357;-70
2023/08/05 11:56:23;;;;;;;0.90;0.90;;;;;;;;;;8222184;28;20534;-70
2023/08/05 12:00:24;;;;;;;0.82;0.82;;;;;;;;;;8239209;28;20046;-70
2023/08/05 12:04:24;;;;;;;1.15;1.00;;;;;;;;;;8239645;28;20859;-70
2023/08/05 12:08:38;;;;;;;0.82;0.82;;;;;;;;;;8240444;28;20041;-70
2023/08/05 12:12:49;;;;;;;0.90;0.90;;;;;;;;;;8222699;28;20207;-70
2023/08/05 12:16:52;;;;;;;0.80;0.80;;;;;;;;;;8240011;28;20037;-70
2023/08/05 12:20:52;;;;;;;2.65;0.90;;;;;;;;;;8240643;28;20018;-70
2023/08/05 12:24:52;;;;;;;0.75;0.75;;;;;;;;;;8236804;28;20120;-70
2023/08/05 12:28:52;;;;;;;3.25;0.80;;;;;;;;;;8238887;28;20029;-70
2023/08/05 12:32:56;;;;;;;0.90;0.90;;;;;;;;;;8237059;28;20042;-70
2023/08/05 12:36:57;;;;;;;1.17;1.00;;;;;;;;;;8238144;28;20066;-71
2023/08/05 12:40:57;;;;;;;1.00;1.00;;;;;;;;;;8242515;28;20026;-70
2023/08/05 12:45:00;;;;;;;0.88;0.82;;;;;;;;;;8240005;28;20475;-70
2023/08/05 12:49:00;;;;;;;1.15;0.90;;;;;;;;;;8237341;28;20035;-71
2023/08/05 12:53:00;;;;;;;2.05;0.98;;;;;;;;;;8236350;28;20036;-70
2023/08/05 12:57:01;;;;;;;0.80;0.80;;;;;;;;;;8238909;28;20596;-70
2023/08/05 13:01:01;;;;;;;1.98;0.90;;;;;;;;;;8236385;28;20093;-71
2023/08/05 13:05:01;;;;;;;0.90;0.90;;;;;;;;;;8240403;28;20121;-71
2023/08/05 13:09:01;;;;;;;0.80;0.80;;;;;;;;;;8233930;28;20026;-70
2023/08/05 13:13:02;;;;;;;0.80;0.80;;;;;;;;;;8239890;28;20017;-70
2023/08/05 13:17:02;;;;;;;0.95;0.80;;;;;;;;;;8238238;28;20376;-70
2023/08/05 13:21:02;;;;;;;1.20;0.80;;;;;;;;;;8240071;28;20026;-70
2023/08/05 13:25:03;;;;;;;0.85;0.70;;;;;;;;;;8233492;28;20117;-70
2023/08/05 13:29:03;;;;;;;0.90;0.90;;;;;;;;;;8244405;28;20128;-71
2023/08/05 13:33:03;;;;;;;3.20;0.90;;;;;;;;;;8244454;28;20285;-70
2023/08/05 13:37:03;;;;;;;0.75;0.73;;;;;;;;;;8242038;28;20037;-71
2023/08/05 13:41:04;;;;;;;0.70;0.70;;;;;;;;;;8245699;28;20121;-70
2023/08/05 13:45:04;;;;;;;1.80;0.80;;;;;;;;;;8245293;28;21033;-71
2023/08/05 13:49:04;;;;;;;0.95;0.80;;;;;;;;;;8241823;28;20018;-71
2023/08/05 13:53:05;;;;;;;1.55;1.00;;;;;;;;;;8221160;28;20021;-71
2023/08/05 13:57:05;;;;;;;0.85;0.85;;;;;;;;;;8243804;28;20037;-71
2023/08/05 14:01:13;;;;;;;2.55;0.90;;;;;;;;;;8241738;28;20514;-71
2023/08/05 14:05:13;;;;;;;3.35;0.90;;;;;;;;;;8243627;28;20038;-71
2023/08/05 14:09:13;;;;;;;1.30;0.80;;;;;;;;;;8242934;28;20026;-71
2023/08/05 14:13:14;;;;;;;1.02;0.95;;;;;;;;;;8242650;28;20136;-71
2023/08/05 14:17:14;;;;;;;0.80;0.80;;;;;;;;;;8240072;28;20815;-71
2023/08/05 14:21:14;;;;;;;0.93;0.93;;;;;;;;;;8246505;28;20269;-71
2023/08/05 14:25:14;;;;;;;2.70;1.20;;;;;;;;;;8243446;28;20057;-70
2023/08/05 14:29:15;;;;;;;1.30;1.20;;;;;;;;;;8241832;28;20018;-71
2023/08/05 14:33:15;;;;;;;1.02;1.00;;;;;;;;;;8243944;28;20335;-71
2023/08/05 14:37:15;;;;;;;1.90;1.10;;;;;;;;;;8242261;28;20049;-70
2023/08/05 14:41:15;;;;;;;1.40;1.08;;;;;;;;;;8242955;28;20045;-70
2023/08/05 14:45:15;;;;;;;1.75;1.20;;;;;;;;;;8241692;28;20034;-71
2023/08/05 14:49:16;;;;;;;1.15;1.05;;;;;;;;;;8232255;28;20026;-71
2023/08/05 14:53:16;;;;;;;0.93;0.93;;;;;;;;;;8240044;28;20032;-70
2023/08/05 14:57:16;;;;;;;2.70;0.90;;;;;;;;;;8240616;28;20034;-71
2023/08/05 15:01:16;;;;;;;1.75;1.00;;;;;;;;;;8241810;28;20152;-71
2023/08/05 15:05:16;;;;;;;1.00;1.00;;;;;;;;;;8243267;28;20038;-70
2023/08/05 15:09:17;;;;;;;1.10;1.00;;;;;;;;;;8239286;28;20392;-70
2023/08/05 15:13:17;;;;;;;2.27;1.00;;;;;;;;;;8240397;28;20402;-70
2023/08/05 15:17:17;;;;;;;1.65;0.90;;;;;;;;;;8239419;28;21041;-70
2023/08/05 15:21:17;;;;;;;1.98;1.10;;;;;;;;;;8240868;28;20032;-70
2023/08/05 15:25:17;;;;;;;2.65;1.15;;;;;;;;;;8238925;28;20092;-70
2023/08/05 15:29:18;;;;;;;1.02;1.02;;;;;;;;;;8239890;28;20101;-70
2023/08/05 15:33:18;;;;;;;1.08;1.00;;;;;;;;;;8239874;28;20038;-70
2023/08/05 15:37:18;;;;;;;1.23;1.13;;;;;;;;;;8239299;28;20115;-70
2023/08/05 15:41:19;;;;;;;2.50;1.13;;;;;;;;;;8240588;28;20800;-70
2023/08/05 15:45:19;;;;;;;1.25;1.15;;;;;;;;;;8240193;28;20044;-70
2023/08/05 15:49:19;;;;;;;2.38;1.10;;;;;;;;;;8239355;28;20141;-70
2023/08/05 15:53:19;;;;;;;1.95;1.30;;;;;;;;;;8237078;28;20026;-70
2023/08/05 15:57:19;;;;;;;3.23;1.17;;;;;;;;;;8239317;28;20711;-69
2023/08/05 16:01:20;;;;;;;1.13;1.10;;;;;;;;;;8241344;28;20242;-69
2023/08/05 16:05:21;;;;;;;1.23;1.13;;;;;;;;;;8241151;28;20032;-70
2023/08/05 16:09:21;;;;;;;2.45;1.10;;;;;;;;;;8241138;28;20050;-69
2023/08/05 16:13:21;;;;;;;3.28;1.40;;;;;;;;;;8240816;28;20069;-69
2023/08/05 16:17:21;;;;;;;1.35;1.20;;;;;;;;;;8238885;28;20031;-70
2023/08/05 16:21:22;;;;;;;1.15;1.10;;;;;;;;;;8241341;28;20123;-70
2023/08/05 16:25:22;;;;;;;1.30;1.20;;;;;;;;;;8230495;28;20029;-69
2023/08/05 16:29:22;;;;;;;1.60;1.02;;;;;;;;;;8240309;28;20026;-69
2023/08/05 16:33:23;;;;;;;2.13;1.20;;;;;;;;;;8238705;28;20145;-69
2023/08/05 16:37:23;;;;;;;2.08;1.10;;;;;;;;;;8237564;28;20343;-69
2023/08/05 16:41:23;;;;;;;1.33;1.23;;;;;;;;;;8239410;28;20513;-69
2023/08/05 16:45:23;;;;;;;1.30;1.20;;;;;;;;;;8240517;28;20038;-69
2023/08/05 16:49:23;;;;;;;3.17;1.20;;;;;;;;;;8239182;28;20109;-69
2023/08/05 16:53:23;;;;;;;2.78;1.10;;;;;;;;;;8239138;28;20030;-69
2023/08/05 16:57:24;;;;;;;2.88;1.30;;;;;;;;;;8243210;28;20026;-69
2023/08/05 17:01:24;;;;;;;2.50;1.40;;;;;;;;;;8246342;28;20137;-69
2023/08/05 17:05:24;;;;;;;1.13;1.10;;;;;;;;;;8245636;28;20025;-69
2023/08/05 17:09:24;;;;;;;2.45;1.23;;;;;;;;;;8242604;28;20036;-69
2023/08/05 17:13:24;;;;;;;1.83;1.17;;;;;;;;;;8244883;28;20403;-69
2023/08/05 17:17:24;;;;;;;2.00;1.25;;;;;;;;;;8243621;28;20585;-69
2023/08/05 17:21:25;;;;;;;1.00;0.97;;;;;;;;;;8244443;28;20026;-69
2023/08/05 17:25:25;;;;;;;3.20;1.40;;;;;;;;;;8243088;28;20022;-69
2023/08/05 17:29:25;;;;;;;1.45;1.35;;;;;;;;;;8243605;28;20065;-69
2023/08/05 17:33:25;;;;;;;1.13;1.10;;;;;;;;;;8240126;28;20038;-69
2023/08/05 17:37:25;;;;;;;2.15;1.10;;;;;;;;;;8242448;28;20040;-69
2023/08/05 17:41:26;;;;;;;1.45;1.02;;;;;;;;;;8242252;28;20407;-69
2023/08/05 17:45:26;;;;;;;1.90;1.20;;;;;;;;;;8225593;28;20042;-70
2023/08/05 17:49:26;;;;;;;1.48;1.23;;;;;;;;;;8241674;28;20026;-69
2023/08/05 17:53:26;;;;;;;1.10;1.10;;;;;;;;;;8239738;28;20030;-69
2023/08/05 17:57:26;;;;;;;1.15;1.08;;;;;;;;;;8222687;28;20014;-70
2023/08/05 18:01:27;;;;;;;1.80;1.45;;;;;;;;;;8241966;28;20073;-69
2023/08/05 18:05:27;;;;;;;1.05;1.05;;;;;;;;;;8231458;28;20034;-69
2023/08/05 18:09:27;;;;;;;1.30;1.20;;;;;;;;;;8241253;28;20315;-69
2023/08/05 18:13:27;;;;;;;1.40;1.30;;;;;;;;;;8245523;28;20030;-69
2023/08/05 18:17:27;;;;;;;1.40;1.30;;;;;;;;;;8239944;28;20031;-70
2023/08/05 18:21:27;;;;;;;1.63;1.20;;;;;;;;;;8241658;28;20276;-70
2023/08/05 18:25:30;;;;;;;1.63;1.30;;;;;;;;;;8242507;28;20105;-70
2023/08/05 18:29:31;;;;;;;2.25;1.40;;;;;;;;;;8241209;28;20940;-70
2023/08/05 18:33:31;;;;;;;1.10;1.10;;;;;;;;;;8241876;28;20040;-70
2023/08/05 18:37:31;;;;;;;1.33;1.23;;;;;;;;;;8241194;28;20442;-70
2023/08/05 18:41:33;;;;;;;1.40;1.30;;;;;;;;;;8242357;28;20030;-70
2023/08/05 18:45:34;;;;;;;1.30;1.20;;;;;;;;;;8240185;28;20386;-70
2023/08/05 18:49:34;;;;;;;1.13;1.13;;;;;;;;;;8241959;28;20203;-69
2023/08/05 18:53:37;;;;;;;2.03;1.40;;;;;;;;;;8239413;28;20053;-70
2023/08/05 18:57:37;;;;;;;2.40;1.40;;;;;;;;;;8241940;28;20072;-70
2023/08/05 19:01:37;;;;;;;1.63;1.52;;;;;;;;;;8240572;28;20538;-70
2023/08/05 19:05:37;;;;;;;1.92;1.20;;;;;;;;;;8241676;28;20029;-70
2023/08/05 19:09:37;;;;;;;2.25;1.45;;;;;;;;;;8239709;28;20399;-70
2023/08/05 19:13:37;;;;;;;2.08;1.70;;;;;;;;;;8238486;28;20426;-70
2023/08/05 19:17:38;;;;;;;1.50;1.40;;;;;;;;;;8238949;28;20038;-69
2023/08/05 19:21:38;;;;;;;1.83;1.60;;;;;;;;;;8221915;28;20117;-69
2023/08/05 19:25:38;;;;;;;1.80;1.63;;;;;;;;;;8237256;28;20622;-70
2023/08/05 19:29:38;;;;;;;1.55;1.45;;;;;;;;;;8238956;28;20045;-70
2023/08/05 19:33:40;;;;;;;1.80;1.40;;;;;;;;;;8240322;28;20109;-70
2023/08/05 19:37:40;;;;;;;1.50;1.40;;;;;;;;;;8237592;28;20026;-70
2023/08/05 19:41:40;;;;;;;2.60;1.40;;;;;;;;;;8239903;28;21027;-70
2023/08/05 19:45:41;;;;;;;1.73;1.33;;;;;;;;;;8238792;28;20061;-70
2023/08/05 19:49:41;;;;;;;1.52;1.40;;;;;;;;;;8237258;28;20026;-70
2023/08/05 19:53:42;;;;;;;1.65;1.50;;;;;;;;;;8236914;28;20124;-70
2023/08/05 19:57:42;;;;;;;2.45;1.40;;;;;;;;;;8237229;28;20593;-70
2023/08/05 20:01:43;;;;;;;1.63;1.53;;;;;;;;;;8239247;28;20034;-70
2023/08/05 20:05:43;;;;;;;1.63;1.38;;;;;;;;;;8240078;28;21302;-70
2023/08/05 20:09:43;;;;;;;2.35;1.30;;;;;;;;;;8235971;28;20124;-70
2023/08/05 20:13:44;;;;;;;1.52;1.42;;;;;;;;;;8239128;28;20145;-70
2023/08/05 20:17:44;;;;;;;2.60;1.50;;;;;;;;;;8236106;28;20030;-69
2023/08/05 20:21:44;;;;;;;1.60;1.50;;;;;;;;;;8235877;28;20753;-70
2023/08/05 20:25:44;;;;;;;1.50;1.40;;;;;;;;;;8236984;28;20036;-70
2023/08/05 20:29:44;;;;;;;1.90;1.42;;;;;;;;;;8234749;28;20435;-70
2023/08/05 20:33:45;;;;;;;1.77;1.63;;;;;;;;;;8197429;28;1086079;-70
2023/08/05 20:37:45;;;;;;;2.95;1.80;;;;;;;;;;8237752;28;20061;-69
2023/08/05 20:41:45;;;;;;;1.98;1.73;;;;;;;;;;8236519;28;20052;-70
2023/08/05 20:45:45;;;;;;;1.70;1.52;;;;;;;;;;8237974;28;20243;-70
2023/08/05 20:49:45;;;;;;;1.55;1.40;;;;;;;;;;8238503;28;20487;-70
2023/08/05 20:53:46;;;;;;;1.90;1.50;;;;;;;;;;8219427;28;20073;-70
2023/08/05 20:57:46;;;;;;;2.65;1.60;;;;;;;;;;8237458;28;20022;-70
2023/08/05 21:01:47;;;;;;;2.15;1.55;;;;;;;;;;8237338;28;20027;-70
2023/08/05 21:05:47;;;;;;;2.88;1.80;;;;;;;;;;8238683;28;20029;-69
2023/08/05 21:09:48;;;;;;;1.63;1.50;;;;;;;;;;8237621;28;20468;-69
2023/08/05 21:13:48;;;;;;;2.60;1.70;;;;;;;;;;8238327;28;20048;-70
2023/08/05 21:17:48;;;;;;;1.55;1.45;;;;;;;;;;8237174;28;20383;-70
2023/08/05 21:21:48;;;;;;;1.67;1.58;;;;;;;;;;8219189;28;20018;-70
2023/08/05 21:25:49;;;;;;;1.92;1.60;;;;;;;;;;8236308;28;20030;-70
2023/08/05 21:29:49;;;;;;;1.73;1.45;;;;;;;;;;8233833;28;20036;-70
2023/08/05 21:33:50;;;;;;;1.87;1.70;;;;;;;;;;8230541;28;20170;-70
2023/08/05 21:37:50;;;;;;;4.20;2.00;;;;;;;;;;8231980;28;20272;-70
2023/08/05 21:41:51;;;;;;;3.25;1.80;;;;;;;;;;8236142;28;20060;-70
2023/08/05 21:45:52;;;;;;;2.17;1.77;;;;;;;;;;8223827;28;20058;-70
2023/08/05 21:49:52;;;;;;;2.20;2.00;;;;;;;;;;8236527;28;20295;-70
2023/08/05 21:53:53;;;;;;;2.15;1.77;;;;;;;;;;8239340;28;20824;-70
2023/08/05 21:57:53;;;;;;;2.00;1.63;;;;;;;;;;8238741;28;20022;-70
2023/08/05 22:01:53;;;;;;;3.85;1.63;;;;;;;;;;8236864;28;20302;-70
2023/08/05 22:05:53;;;;;;;1.93;1.80;;;;;;;;;;8220133;28;20018;-70
2023/08/05 22:09:53;;;;;;;2.10;1.90;;;;;;;;;;8215191;28;20268;-70
2023/08/05 22:13:54;;;;;;;2.85;1.95;;;;;;;;;;8226427;28;20022;-70
2023/08/05 22:17:54;;;;;;;2.00;1.48;;;;;;;;;;8239781;28;20437;-70
2023/08/05 22:21:54;;;;;;;1.98;1.77;;;;;;;;;;8240234;28;20042;-70
2023/08/05 22:25:54;;;;;;;2.65;1.90;;;;;;;;;;8238187;28;20052;-69
2023/08/05 22:29:54;;;;;;;1.85;1.50;;;;;;;;;;8239378;28;20022;-70
2023/08/05 22:33:55;;;;;;;2.15;1.67;;;;;;;;;;8240764;28;20066;-69
2023/08/05 22:37:55;;;;;;;2.05;1.73;;;;;;;;;;8236855;28;20917;-69
2023/08/05 22:41:55;;;;;;;2.10;1.55;;;;;;;;;;8241070;28;20034;-70
2023/08/05 22:45:59;;;;;;;2.13;1.50;;;;;;;;;;8239373;28;20042;-70
2023/08/05 22:49:59;;;;;;;3.00;1.67;;;;;;;;;;8240343;28;20082;-69
2023/08/05 22:53:59;;;;;;;2.70;1.80;;;;;;;;;;8237924;28;20817;-70
2023/08/05 22:58:02;;;;;;;2.17;1.80;;;;;;;;;;8239474;28;20030;-70
2023/08/05 23:02:03;;;;;;;2.97;1.67;;;;;;;;;;8238467;28;20057;-70
2023/08/05 23:06:03;;;;;;;1.83;1.73;;;;;;;;;;8241235;28;20037;-70
2023/08/05 23:10:03;;;;;;;2.60;1.65;;;;;;;;;;8238363;28;20029;-70
2023/08/05 23:14:04;;;;;;;2.92;1.73;;;;;;;;;;8240222;28;20779;-69
2023/08/05 23:18:04;;;;;;;2.00;1.75;;;;;;;;;;8238494;28;20260;-70
2023/08/05 23:22:04;;;;;;;3.42;2.10;;;;;;;;;;8238900;28;20022;-70
2023/08/05 23:26:05;;;;;;;2.23;1.90;;;;;;;;;;8239019;28;20030;-70
2023/08/05 23:30:06;;;;;;;3.45;1.80;;;;;;;;;;8235766;28;20281;-69
2023/08/05 23:34:06;;;;;;;1.70;1.60;;;;;;;;;;8237696;28;20121;-70
2023/08/05 23:38:07;;;;;;;2.47;1.90;;;;;;;;;;8236981;28;20029;-70
2023/08/05 23:42:07;;;;;;;3.67;1.63;;;;;;;;;;8238880;28;20034;-70
2023/08/05 23:46:07;;;;;;;4.38;1.45;;;;;;;;;;8226206;28;20066;-70
2023/08/05 23:50:07;;;;;;;3.07;1.80;;;;;;;;;;8237816;28;20163;-70
2023/08/05 23:54:08;;;;;;;2.13;1.70;;;;;;;;;;8238445;28;20273;-70
2023/08/05 23:58:08;;;;;;;4.82;1.90;;;;;;;;;;8235556;28;20040;-70
